createdAt,value
2017-08-30T00:00:48.734Z,15.27
2017-08-30T00:02:01.375Z,15.32
2017-08-30T00:03:13.323Z,15.25
2017-08-30T00:04:25.274Z,15.17
2017-08-30T00:05:37.912Z,15.22
2017-08-30T00:06:50.506Z,15.27
2017-08-30T00:08:03.050Z,15.18
2017-08-30T00:09:15.046Z,15.18
2017-08-30T00:10:27.611Z,15.08
2017-08-30T00:11:40.236Z,15.17
2017-08-30T00:12:52.790Z,15.12
2017-08-30T00:14:05.361Z,15.14
2017-08-30T00:15:17.926Z,15.07
2017-08-30T00:16:30.196Z,15.08
2017-08-30T00:17:42.745Z,15.07
2017-08-30T00:18:55.361Z,15.12
2017-08-30T00:20:08.007Z,15.08
2017-08-30T00:21:20.279Z,15.15
2017-08-30T00:22:33.158Z,15.1
2017-08-30T00:23:45.794Z,15.07
2017-08-30T00:24:58.339Z,15.07
2017-08-30T00:26:10.961Z,14.97
2017-08-30T00:27:23.238Z,15.04
2017-08-30T00:28:35.838Z,15.05
2017-08-30T00:29:48.423Z,15.02
2017-08-30T00:31:01.057Z,14.96
2017-08-30T00:32:13.043Z,15.04
2017-08-30T00:33:25.315Z,15
2017-08-30T00:34:37.623Z,15.04
2017-08-30T00:35:49.912Z,15
2017-08-30T00:37:02.489Z,15
2017-08-30T00:38:14.743Z,14.96
2017-08-30T00:39:27.316Z,14.96
2017-08-30T00:40:39.951Z,14.97
2017-08-30T00:41:52.530Z,14.89
2017-08-30T00:43:05.075Z,14.9
2017-08-30T00:44:17.696Z,14.96
2017-08-30T00:45:29.672Z,14.9
2017-08-30T00:46:42.266Z,14.93
2017-08-30T00:47:54.226Z,14.97
2017-08-30T00:49:06.783Z,14.93
2017-08-30T00:50:19.312Z,14.87
2017-08-30T00:51:31.300Z,14.85
2017-08-30T00:52:43.951Z,14.87
2017-08-30T00:53:56.567Z,14.89
2017-08-30T00:55:09.110Z,14.9
2017-08-30T00:56:21.663Z,14.79
2017-08-30T00:57:34.234Z,14.85
2017-08-30T00:58:46.781Z,14.77
2017-08-30T00:59:59.388Z,14.81
2017-08-30T01:01:11.677Z,14.86
2017-08-30T01:02:23.966Z,14.85
2017-08-30T01:03:36.550Z,14.78
2017-08-30T01:04:49.233Z,14.77
2017-08-30T01:06:01.801Z,14.77
2017-08-30T01:07:14.139Z,14.81
2017-08-30T01:08:26.694Z,14.74
2017-08-30T01:09:39.231Z,14.74
2017-08-30T01:10:51.489Z,14.68
2017-08-30T01:12:04.354Z,14.77
2017-08-30T01:13:16.609Z,14.74
2017-08-30T01:14:29.220Z,14.67
2017-08-30T01:15:41.844Z,14.71
2017-08-30T01:16:54.479Z,14.63
2017-08-30T01:18:06.792Z,14.61
2017-08-30T01:19:19.376Z,14.62
2017-08-30T01:20:32.014Z,14.71
2017-08-30T01:21:44.312Z,14.67
2017-08-30T01:22:56.932Z,14.62
2017-08-30T01:24:09.213Z,14.63
2017-08-30T01:25:21.847Z,14.61
2017-08-30T01:26:34.423Z,14.58
2017-08-30T01:27:47.044Z,14.68
2017-08-30T01:28:59.293Z,14.52
2017-08-30T01:30:11.880Z,14.58
2017-08-30T01:31:24.429Z,14.53
2017-08-30T01:32:36.733Z,14.49
2017-08-30T01:33:49.337Z,14.53
2017-08-30T01:35:01.918Z,14.53
2017-08-30T01:36:14.476Z,14.52
2017-08-30T01:37:27.092Z,14.61
2017-08-30T01:38:39.767Z,14.58
2017-08-30T01:39:52.324Z,14.58
2017-08-30T01:41:04.339Z,14.56
2017-08-30T01:42:16.914Z,14.52
2017-08-30T01:43:29.175Z,14.49
2017-08-30T01:44:41.720Z,14.48
2017-08-30T01:45:53.999Z,14.48
2017-08-30T01:47:06.562Z,14.48
2017-08-30T01:48:19.123Z,14.43
2017-08-30T01:49:31.783Z,14.44
2017-08-30T01:50:44.417Z,14.48
2017-08-30T01:51:56.988Z,14.49
2017-08-30T01:53:09.572Z,14.41
2017-08-30T01:54:21.868Z,14.48
2017-08-30T01:55:34.432Z,14.48
2017-08-30T01:56:47.013Z,14.49
2017-08-30T01:57:59.552Z,14.37
2017-08-30T01:59:11.856Z,14.43
2017-08-30T02:00:24.159Z,14.44
2017-08-30T02:01:36.794Z,14.38
2017-08-30T02:02:49.074Z,14.33
2017-08-30T02:04:01.369Z,14.37
2017-08-30T02:05:13.959Z,14.33
2017-08-30T02:06:26.267Z,14.43
2017-08-30T02:07:38.819Z,14.37
2017-08-30T02:08:51.390Z,14.28
2017-08-30T02:10:03.991Z,14.31
2017-08-30T02:11:15.912Z,14.28
2017-08-30T02:12:28.527Z,14.26
2017-08-30T02:13:40.757Z,14.25
2017-08-30T02:14:52.430Z,14.3
2017-08-30T02:16:05.025Z,14.26
2017-08-30T02:17:17.634Z,14.31
2017-08-30T02:18:30.186Z,14.22
2017-08-30T02:19:42.754Z,14.28
2017-08-30T02:20:55.328Z,14.28
2017-08-30T02:22:07.296Z,14.31
2017-08-30T02:23:18.956Z,14.15
2017-08-30T02:24:31.551Z,14.25
2017-08-30T02:25:44.141Z,14.2
2017-08-30T02:26:56.776Z,14.19
2017-08-30T02:28:08.714Z,14.2
2017-08-30T02:29:21.278Z,14.18
2017-08-30T02:30:33.530Z,14.25
2017-08-30T02:31:46.107Z,14.25
2017-08-30T02:32:58.707Z,14.22
2017-08-30T02:34:11.055Z,14.15
2017-08-30T02:35:23.647Z,14.2
2017-08-30T02:36:36.193Z,14.13
2017-08-30T02:37:48.742Z,14.15
2017-08-30T02:39:01.293Z,14.15
2017-08-30T02:40:13.955Z,14.2
2017-08-30T02:41:26.486Z,14.07
2017-08-30T02:42:38.755Z,14.11
2017-08-30T02:43:51.574Z,14.11
2017-08-30T02:45:04.170Z,14.11
2017-08-30T02:46:16.698Z,14.12
2017-08-30T02:47:29.286Z,14.05
2017-08-30T02:48:41.908Z,14.11
2017-08-30T02:49:54.499Z,14.12
2017-08-30T02:51:07.162Z,14.07
2017-08-30T02:52:19.708Z,14.05
2017-08-30T02:53:32.318Z,14
2017-08-30T02:54:44.678Z,14.08
2017-08-30T02:55:56.674Z,14.12
2017-08-30T02:57:08.969Z,14.05
2017-08-30T02:58:21.541Z,13.98
2017-08-30T02:59:34.108Z,14.03
2017-08-30T03:00:46.406Z,14.03
2017-08-30T03:01:58.935Z,14
2017-08-30T03:03:11.193Z,14.01
2017-08-30T03:04:23.535Z,13.97
2017-08-30T03:05:36.086Z,14.01
2017-08-30T03:06:48.681Z,14.04
2017-08-30T03:08:01.302Z,14.01
2017-08-30T03:09:13.597Z,14
2017-08-30T03:10:26.149Z,14.04
2017-08-30T03:11:38.824Z,13.95
2017-08-30T03:12:51.392Z,14
2017-08-30T03:14:03.974Z,13.95
2017-08-30T03:15:15.601Z,14
2017-08-30T03:16:27.970Z,14
2017-08-30T03:17:40.616Z,13.97
2017-08-30T03:18:53.168Z,14.01
2017-08-30T03:20:05.422Z,13.97
2017-08-30T03:21:18.004Z,13.95
2017-08-30T03:22:30.324Z,13.98
2017-08-30T03:23:42.885Z,13.97
2017-08-30T03:24:55.590Z,13.97
2017-08-30T03:26:07.847Z,14.05
2017-08-30T03:27:20.132Z,13.95
2017-08-30T03:28:32.738Z,13.94
2017-08-30T03:29:45.311Z,13.94
2017-08-30T03:30:57.973Z,13.94
2017-08-30T03:32:10.589Z,13.87
2017-08-30T03:33:22.842Z,13.94
2017-08-30T03:34:35.133Z,13.89
2017-08-30T03:35:47.662Z,13.91
2017-08-30T03:37:00.252Z,13.91
2017-08-30T03:38:13.019Z,13.94
2017-08-30T03:39:25.589Z,13.95
2017-08-30T03:40:37.845Z,13.94
2017-08-30T03:41:50.409Z,13.95
2017-08-30T03:43:02.959Z,14
2017-08-30T03:44:15.209Z,13.89
2017-08-30T03:45:27.524Z,13.91
2017-08-30T03:46:40.114Z,13.89
2017-08-30T03:47:52.632Z,13.91
2017-08-30T03:49:04.929Z,13.93
2017-08-30T03:50:17.235Z,13.91
2017-08-30T03:51:29.818Z,13.87
2017-08-30T03:52:42.414Z,13.83
2017-08-30T03:53:54.991Z,13.93
2017-08-30T03:55:06.959Z,13.89
2017-08-30T03:56:19.605Z,13.91
2017-08-30T03:57:32.209Z,13.89
2017-08-30T03:58:44.822Z,13.91
2017-08-30T03:59:57.450Z,13.87
2017-08-30T04:01:09.413Z,13.87
2017-08-30T04:02:21.636Z,13.89
2017-08-30T04:03:34.168Z,13.85
2017-08-30T04:04:46.839Z,13.86
2017-08-30T04:05:59.410Z,13.91
2017-08-30T04:07:12.012Z,13.82
2017-08-30T04:08:24.608Z,13.94
2017-08-30T04:09:37.161Z,13.86
2017-08-30T04:10:49.767Z,13.89
2017-08-30T04:12:02.423Z,13.89
2017-08-30T04:13:14.718Z,13.91
2017-08-30T04:14:26.987Z,13.91
2017-08-30T04:15:39.536Z,13.8
2017-08-30T04:16:51.983Z,13.86
2017-08-30T04:18:04.230Z,13.85
2017-08-30T04:19:16.530Z,13.82
2017-08-30T04:20:28.819Z,13.79
2017-08-30T04:21:41.386Z,13.79
2017-08-30T04:22:53.956Z,13.78
2017-08-30T04:24:06.527Z,13.78
2017-08-30T04:25:19.114Z,13.85
2017-08-30T04:26:31.670Z,13.82
2017-08-30T04:27:44.545Z,13.8
2017-08-30T04:28:57.221Z,13.79
2017-08-30T04:30:09.454Z,13.78
2017-08-30T04:31:22.047Z,13.83
2017-08-30T04:32:34.595Z,13.85
2017-08-30T04:33:47.198Z,13.87
2017-08-30T04:34:59.815Z,13.78
2017-08-30T04:36:12.108Z,13.82
2017-08-30T04:37:24.697Z,13.82
2017-08-30T04:38:37.309Z,13.85
2017-08-30T04:39:49.938Z,13.78
2017-08-30T04:41:02.193Z,13.82
2017-08-30T04:42:14.472Z,13.79
2017-08-30T04:43:27.056Z,13.83
2017-08-30T04:44:39.627Z,13.87
2017-08-30T04:45:51.960Z,13.8
2017-08-30T04:47:04.556Z,13.93
2017-08-30T04:48:16.515Z,13.87
2017-08-30T04:49:29.134Z,13.89
2017-08-30T04:50:41.673Z,13.89
2017-08-30T04:51:54.318Z,13.93
2017-08-30T04:53:06.621Z,13.93
2017-08-30T04:54:18.867Z,13.87
2017-08-30T04:55:31.431Z,13.89
2017-08-30T04:56:44.009Z,13.94
2017-08-30T04:57:56.658Z,14
2017-08-30T04:59:09.224Z,13.91
2017-08-30T05:00:21.855Z,13.95
2017-08-30T05:01:34.400Z,13.98
2017-08-30T05:02:47.042Z,13.98
2017-08-30T05:03:59.584Z,13.93
2017-08-30T05:05:11.877Z,14
2017-08-30T05:06:23.560Z,14.04
2017-08-30T05:07:35.829Z,14.04
2017-08-30T05:08:48.393Z,14.11
2017-08-30T05:10:00.941Z,14.08
2017-08-30T05:11:13.576Z,14.07
2017-08-30T05:12:26.128Z,14.12
2017-08-30T05:13:38.740Z,14.19
2017-08-30T05:14:51.344Z,14.16
2017-08-30T05:16:03.963Z,14.18
2017-08-30T05:17:16.577Z,14.19
2017-08-30T05:18:29.156Z,14.2
2017-08-30T05:19:41.679Z,14.31
2017-08-30T05:20:54.290Z,14.19
2017-08-30T05:22:05.917Z,14.25
2017-08-30T05:23:17.894Z,14.25
2017-08-30T05:24:30.500Z,14.34
2017-08-30T05:25:42.786Z,14.31
2017-08-30T05:26:55.668Z,14.31
2017-08-30T05:28:08.278Z,14.41
2017-08-30T05:29:20.540Z,14.45
2017-08-30T05:30:33.140Z,14.52
2017-08-30T05:31:45.400Z,14.48
2017-08-30T05:32:57.977Z,14.51
2017-08-30T05:34:10.585Z,14.58
2017-08-30T05:35:22.873Z,14.51
2017-08-30T05:36:35.166Z,14.58
2017-08-30T05:37:47.946Z,14.56
2017-08-30T05:38:59.888Z,14.61
2017-08-30T05:40:12.126Z,14.58
2017-08-30T05:41:24.376Z,14.59
2017-08-30T05:42:36.668Z,14.63
2017-08-30T05:43:49.307Z,14.7
2017-08-30T05:45:01.860Z,14.79
2017-08-30T05:46:14.155Z,14.85
2017-08-30T05:47:26.768Z,14.78
2017-08-30T05:48:39.345Z,14.73
2017-08-30T05:49:51.940Z,14.86
2017-08-30T05:51:04.589Z,14.96
2017-08-30T05:52:17.162Z,14.94
2017-08-30T05:53:29.454Z,15.04
2017-08-30T05:54:41.695Z,15.08
2017-08-30T05:55:54.277Z,15.12
2017-08-30T05:57:06.534Z,15.05
2017-08-30T05:58:19.129Z,15.18
2017-08-30T05:59:31.457Z,15.19
2017-08-30T06:00:44.030Z,15.17
2017-08-30T06:01:56.656Z,15.27
2017-08-30T06:03:09.211Z,15.33
2017-08-30T06:04:21.471Z,15.33
2017-08-30T06:05:33.746Z,15.37
2017-08-30T06:06:46.341Z,15.39
2017-08-30T06:07:58.626Z,15.5
2017-08-30T06:09:10.915Z,15.55
2017-08-30T06:10:22.885Z,15.6
2017-08-30T06:11:35.481Z,15.67
2017-08-30T06:12:48.052Z,15.67
2017-08-30T06:14:00.361Z,15.76
2017-08-30T06:15:12.654Z,15.88
2017-08-30T06:16:24.963Z,15.88
2017-08-30T06:17:37.591Z,15.88
2017-08-30T06:18:49.855Z,15.91
2017-08-30T06:20:02.085Z,16
2017-08-30T06:21:14.647Z,16.12
2017-08-30T06:22:26.924Z,16.13
2017-08-30T06:23:38.899Z,16.16
2017-08-30T06:24:51.168Z,16.18
2017-08-30T06:26:03.729Z,16.32
2017-08-30T06:27:16.333Z,16.32
2017-08-30T06:28:28.639Z,16.37
2017-08-30T06:29:41.240Z,16.46
2017-08-30T06:30:53.772Z,16.43
2017-08-30T06:32:06.361Z,16.54
2017-08-30T06:33:18.635Z,16.66
2017-08-30T06:34:30.933Z,16.64
2017-08-30T06:35:43.478Z,16.76
2017-08-30T06:36:55.750Z,16.87
2017-08-30T06:38:07.771Z,16.87
2017-08-30T06:39:20.016Z,17.05
2017-08-30T06:40:32.265Z,17.14
2017-08-30T06:41:44.522Z,17.27
2017-08-30T06:42:57.378Z,17.44
2017-08-30T06:44:10.039Z,17.63
2017-08-30T06:45:22.566Z,17.8
2017-08-30T06:46:35.116Z,18.11
2017-08-30T06:47:47.033Z,18.34
2017-08-30T06:48:59.327Z,18.61
2017-08-30T06:50:11.335Z,18.94
2017-08-30T06:51:23.609Z,19.34
2017-08-30T06:52:36.215Z,19.67
2017-08-30T06:53:48.785Z,20.07
2017-08-30T06:55:01.024Z,20.32
2017-08-30T06:56:13.595Z,20.75
2017-08-30T06:57:25.916Z,21.25
2017-08-30T06:58:38.480Z,21.45
2017-08-30T06:59:50.483Z,21.75
2017-08-30T07:01:03.087Z,22.07
2017-08-30T07:02:15.686Z,22.44
2017-08-30T07:03:28.250Z,22.74
2017-08-30T07:04:40.539Z,22.92
2017-08-30T07:05:53.118Z,23.26
2017-08-30T07:07:05.075Z,23.37
2017-08-30T07:08:17.337Z,23.52
2017-08-30T07:09:29.953Z,23.62
2017-08-30T07:10:42.263Z,23.7
2017-08-30T07:11:54.506Z,23.71
2017-08-30T07:13:07.120Z,23.76
2017-08-30T07:14:19.446Z,23.84
2017-08-30T07:15:32.076Z,23.86
2017-08-30T07:16:44.646Z,23.95
2017-08-30T07:17:56.981Z,24.07
2017-08-30T07:19:09.327Z,24.03
2017-08-30T07:20:21.933Z,24.11
2017-08-30T07:21:34.536Z,24.18
2017-08-30T07:22:46.790Z,24.16
2017-08-30T07:23:59.446Z,24.03
2017-08-30T07:25:11.724Z,24.07
2017-08-30T07:26:23.999Z,23.94
2017-08-30T07:27:36.012Z,24.06
2017-08-30T07:28:47.986Z,24.07
2017-08-30T07:30:00.274Z,24.11
2017-08-30T07:31:12.601Z,24.31
2017-08-30T07:32:24.865Z,24.61
2017-08-30T07:33:37.504Z,24.74
2017-08-30T07:34:49.825Z,24.89
2017-08-30T07:36:02.459Z,25.16
2017-08-30T07:37:15.031Z,25.33
2017-08-30T07:38:27.293Z,25.54
2017-08-30T07:39:39.922Z,25.73
2017-08-30T07:40:52.588Z,25.93
2017-08-30T07:42:04.904Z,26.07
2017-08-30T07:43:17.167Z,26.29
2017-08-30T07:44:29.459Z,26.49
2017-08-30T07:45:41.717Z,26.68
2017-08-30T07:46:54.071Z,26.79
2017-08-30T07:48:06.366Z,27
2017-08-30T07:49:18.654Z,27.22
2017-08-30T07:50:30.682Z,27.34
2017-08-30T07:51:43.256Z,27.52
2017-08-30T07:52:55.841Z,27.78
2017-08-30T07:54:08.431Z,27.91
2017-08-30T07:55:20.688Z,28.04
2017-08-30T07:56:33.367Z,28.01
2017-08-30T07:57:45.595Z,28.12
2017-08-30T07:58:58.250Z,28.19
2017-08-30T08:00:10.850Z,28.06
2017-08-30T08:01:23.453Z,28
2017-08-30T08:02:36.117Z,27.91
2017-08-30T08:03:48.784Z,27.82
2017-08-30T08:05:01.332Z,27.64
2017-08-30T08:06:14.003Z,27.57
2017-08-30T08:07:26.588Z,27.29
2017-08-30T08:08:39.146Z,27.23
2017-08-30T08:09:51.732Z,27
2017-08-30T08:11:04.045Z,26.76
2017-08-30T08:12:16.646Z,26.63
2017-08-30T08:13:28.612Z,26.3
2017-08-30T08:14:41.206Z,26.24
2017-08-30T08:15:53.539Z,25.95
2017-08-30T08:17:05.586Z,25.81
2017-08-30T08:18:17.508Z,25.76
2017-08-30T08:19:29.797Z,25.7
2017-08-30T08:20:42.373Z,25.61
2017-08-30T08:21:54.645Z,25.51
2017-08-30T08:23:07.274Z,25.46
2017-08-30T08:24:19.593Z,25.31
2017-08-30T08:25:31.679Z,25.16
2017-08-30T08:26:44.269Z,25.04
2017-08-30T08:27:56.873Z,25.06
2017-08-30T08:29:09.437Z,24.93
2017-08-30T08:30:21.796Z,24.96
2017-08-30T08:31:34.071Z,24.81
2017-08-30T08:32:46.706Z,24.71
2017-08-30T08:33:59.336Z,24.75
2017-08-30T08:35:11.914Z,24.66
2017-08-30T08:36:24.515Z,24.68
2017-08-30T08:37:37.079Z,24.61
2017-08-30T08:38:49.319Z,24.58
2017-08-30T08:40:01.921Z,24.61
2017-08-30T08:41:14.498Z,24.62
2017-08-30T08:42:27.070Z,24.61
2017-08-30T08:43:39.693Z,24.62
2017-08-30T08:44:52.303Z,24.56
2017-08-30T08:46:04.582Z,24.55
2017-08-30T08:47:16.869Z,24.59
2017-08-30T08:48:29.455Z,24.66
2017-08-30T08:49:41.469Z,24.58
2017-08-30T08:50:53.748Z,24.61
2017-08-30T08:52:05.967Z,24.56
2017-08-30T08:53:18.241Z,24.63
2017-08-30T08:54:30.901Z,24.63
2017-08-30T08:55:43.109Z,24.66
2017-08-30T08:56:55.720Z,24.68
2017-08-30T08:58:08.043Z,24.74
2017-08-30T08:59:20.661Z,24.68
2017-08-30T09:00:33.260Z,24.79
2017-08-30T09:01:45.974Z,24.77
2017-08-30T09:02:58.528Z,24.84
2017-08-30T09:04:11.083Z,24.85
2017-08-30T09:05:23.662Z,24.77
2017-08-30T09:06:36.006Z,24.88
2017-08-30T09:07:48.614Z,24.85
2017-08-30T09:09:00.928Z,24.97
2017-08-30T09:10:13.575Z,24.94
2017-08-30T09:11:25.488Z,25.01
2017-08-30T09:12:37.478Z,25.06
2017-08-30T09:13:50.039Z,25.04
2017-08-30T09:15:02.605Z,25.09
2017-08-30T09:16:15.245Z,25.22
2017-08-30T09:17:27.567Z,25.18
2017-08-30T09:18:40.096Z,25.24
2017-08-30T09:19:52.395Z,25.31
2017-08-30T09:21:04.690Z,25.31
2017-08-30T09:22:16.643Z,25.33
2017-08-30T09:23:28.339Z,25.4
2017-08-30T09:24:40.641Z,25.39
2017-08-30T09:25:52.930Z,25.41
2017-08-30T09:27:05.517Z,25.55
2017-08-30T09:28:17.807Z,25.58
2017-08-30T09:29:30.410Z,25.56
2017-08-30T09:30:42.696Z,25.63
2017-08-30T09:31:55.276Z,25.68
2017-08-30T09:33:07.271Z,25.74
2017-08-30T09:34:19.261Z,25.74
2017-08-30T09:35:31.856Z,25.73
2017-08-30T09:36:44.470Z,25.77
2017-08-30T09:37:56.848Z,25.83
2017-08-30T09:39:09.450Z,25.92
2017-08-30T09:40:21.766Z,25.95
2017-08-30T09:41:33.730Z,25.95
2017-08-30T09:42:46.331Z,26.04
2017-08-30T09:43:58.935Z,26.15
2017-08-30T09:45:11.224Z,26.19
2017-08-30T09:46:23.241Z,26.29
2017-08-30T09:47:35.826Z,26.29
2017-08-30T09:48:48.058Z,26.34
2017-08-30T09:50:00.078Z,26.33
2017-08-30T09:51:12.351Z,26.36
2017-08-30T09:52:24.603Z,26.46
2017-08-30T09:53:37.191Z,26.53
2017-08-30T09:54:49.419Z,26.53
2017-08-30T09:56:01.655Z,26.52
2017-08-30T09:57:13.303Z,26.56
2017-08-30T09:58:25.626Z,26.71
2017-08-30T09:59:37.908Z,26.71
2017-08-30T10:00:50.553Z,26.81
2017-08-30T10:02:03.124Z,26.76
2017-08-30T10:03:15.710Z,26.96
2017-08-30T10:04:28.009Z,26.97
2017-08-30T10:05:40.575Z,26.98
2017-08-30T10:06:52.832Z,27.08
2017-08-30T10:08:04.809Z,27.08
2017-08-30T10:09:17.112Z,27.11
2017-08-30T10:10:29.058Z,27.18
2017-08-30T10:11:41.683Z,27.22
2017-08-30T10:12:54.321Z,27.26
2017-08-30T10:14:07.015Z,27.28
2017-08-30T10:15:19.597Z,27.37
2017-08-30T10:16:31.903Z,27.53
2017-08-30T10:17:44.560Z,27.48
2017-08-30T10:18:57.207Z,27.52
2017-08-30T10:20:09.876Z,27.52
2017-08-30T10:21:22.163Z,27.64
2017-08-30T10:22:34.757Z,27.61
2017-08-30T10:23:47.296Z,27.76
2017-08-30T10:24:59.550Z,27.83
2017-08-30T10:26:11.902Z,27.76
2017-08-30T10:27:23.921Z,27.86
2017-08-30T10:28:36.154Z,27.93
2017-08-30T10:29:48.749Z,28.01
2017-08-30T10:31:01.020Z,28.04
2017-08-30T10:32:13.555Z,28.25
2017-08-30T10:33:26.172Z,28.41
2017-08-30T10:34:38.091Z,28.56
2017-08-30T10:35:50.334Z,28.68
2017-08-30T10:37:02.655Z,28.87
2017-08-30T10:38:15.200Z,29.05
2017-08-30T10:39:27.510Z,29.18
2017-08-30T10:40:39.810Z,29.32
2017-08-30T10:41:52.039Z,29.58
2017-08-30T10:43:04.602Z,29.73
2017-08-30T10:44:16.571Z,29.94
2017-08-30T10:45:28.575Z,30.13
2017-08-30T10:46:41.098Z,30.36
2017-08-30T10:47:53.716Z,30.58
2017-08-30T10:49:05.963Z,30.98
2017-08-30T10:50:18.589Z,31.17
2017-08-30T10:51:30.833Z,31.35
2017-08-30T10:52:43.426Z,31.69
2017-08-30T10:53:55.955Z,32.11
2017-08-30T10:55:08.651Z,32.48
2017-08-30T10:56:20.335Z,32.85
2017-08-30T10:57:32.938Z,33.15
2017-08-30T10:58:45.537Z,33.48
2017-08-30T10:59:57.834Z,33.91
2017-08-30T11:01:10.104Z,34.25
2017-08-30T11:02:22.140Z,34.6
2017-08-30T11:03:34.434Z,34.75
2017-08-30T11:04:47.056Z,35.31
2017-08-30T11:05:59.644Z,35.42
2017-08-30T11:07:12.250Z,35.71
2017-08-30T11:08:24.617Z,35.87
2017-08-30T11:09:37.213Z,36.01
2017-08-30T11:10:49.446Z,36.24
2017-08-30T11:12:01.747Z,36.45
2017-08-30T11:13:14.027Z,36.67
2017-08-30T11:14:26.663Z,36.89
2017-08-30T11:15:39.289Z,36.88
2017-08-30T11:16:51.336Z,36.97
2017-08-30T11:18:03.947Z,36.99
2017-08-30T11:19:16.256Z,37.14
2017-08-30T11:20:29.127Z,37.23
2017-08-30T11:21:41.761Z,37.37
2017-08-30T11:22:53.464Z,37.38
2017-08-30T11:24:05.867Z,37.56
2017-08-30T11:25:18.130Z,37.61
2017-08-30T11:26:30.411Z,37.76
2017-08-30T11:27:42.679Z,37.8
2017-08-30T11:28:55.302Z,37.91
2017-08-30T11:30:06.964Z,38.1
2017-08-30T11:31:18.933Z,38.09
2017-08-30T11:32:31.623Z,38.29
2017-08-30T11:33:43.952Z,38.48
2017-08-30T11:34:56.282Z,38.53
2017-08-30T11:36:08.884Z,38.66
2017-08-30T11:37:21.178Z,38.96
2017-08-30T11:38:33.512Z,39.14
2017-08-30T11:39:46.155Z,39.23
2017-08-30T11:40:58.743Z,39.27
2017-08-30T11:42:11.371Z,39.3
2017-08-30T11:43:23.998Z,39.52
2017-08-30T11:44:36.290Z,39.48
2017-08-30T11:45:48.943Z,39.67
2017-08-30T11:47:01.605Z,39.64
2017-08-30T11:48:13.891Z,39.66
2017-08-30T11:49:26.221Z,39.67
2017-08-30T11:50:38.769Z,39.7
2017-08-30T11:51:50.446Z,39.73
2017-08-30T11:53:02.749Z,39.86
2017-08-30T11:54:15.353Z,39.85
2017-08-30T11:55:27.674Z,39.75
2017-08-30T11:56:40.274Z,39.59
2017-08-30T11:57:52.845Z,39.54
2017-08-30T11:59:05.521Z,39.46
2017-08-30T12:00:17.907Z,39.59
2017-08-30T12:01:29.637Z,39.45
2017-08-30T12:02:42.248Z,39.48
2017-08-30T12:03:54.846Z,39.59
2017-08-30T12:05:07.499Z,39.49
2017-08-30T12:06:19.862Z,39.49
2017-08-30T12:07:32.122Z,39.45
2017-08-30T12:08:44.354Z,39.45
2017-08-30T12:09:56.995Z,39.57
2017-08-30T12:11:09.644Z,39.6
2017-08-30T12:12:21.930Z,39.61
2017-08-30T12:13:34.294Z,39.46
2017-08-30T12:14:46.304Z,39.49
2017-08-30T12:15:58.916Z,39.57
2017-08-30T12:17:11.162Z,39.48
2017-08-30T12:18:23.794Z,39.39
2017-08-30T12:19:36.373Z,39.2
2017-08-30T12:20:48.993Z,39.23
2017-08-30T12:22:01.629Z,38.95
2017-08-30T12:23:13.935Z,38.63
2017-08-30T12:24:26.551Z,38.44
2017-08-30T12:25:39.156Z,38.32
2017-08-30T12:26:51.485Z,37.88
2017-08-30T12:28:04.106Z,37.68
2017-08-30T12:29:16.354Z,37.31
2017-08-30T12:30:28.597Z,37.15
2017-08-30T12:31:41.194Z,36.7
2017-08-30T12:32:53.455Z,36.7
2017-08-30T12:34:06.081Z,36.48
2017-08-30T12:35:18.380Z,36.25
2017-08-30T12:36:30.941Z,36
2017-08-30T12:37:43.269Z,35.93
2017-08-30T12:38:55.252Z,35.82
2017-08-30T12:40:07.523Z,35.6
2017-08-30T12:41:19.561Z,35.3
2017-08-30T12:42:32.158Z,35.15
2017-08-30T12:43:44.774Z,35.03
2017-08-30T12:44:57.052Z,34.83
2017-08-30T12:46:09.347Z,34.76
2017-08-30T12:47:21.672Z,34.56
2017-08-30T12:48:33.991Z,34.46
2017-08-30T12:49:46.289Z,34.4
2017-08-30T12:50:58.915Z,34.25
2017-08-30T12:52:11.246Z,34.11
2017-08-30T12:53:23.787Z,34.04
2017-08-30T12:54:36.437Z,33.94
2017-08-30T12:55:48.768Z,33.88
2017-08-30T12:57:01.084Z,33.67
2017-08-30T12:58:13.082Z,33.51
2017-08-30T12:59:25.372Z,33.44
2017-08-30T13:00:37.963Z,33.22
2017-08-30T13:01:50.568Z,33.28
2017-08-30T13:03:02.479Z,33.17
2017-08-30T13:04:15.116Z,33.09
2017-08-30T13:05:27.095Z,33.05
2017-08-30T13:06:39.642Z,33.03
2017-08-30T13:07:52.231Z,32.95
2017-08-30T13:09:04.213Z,32.91
2017-08-30T13:10:16.864Z,32.93
2017-08-30T13:11:29.184Z,32.85
2017-08-30T13:12:41.522Z,32.86
2017-08-30T13:13:54.097Z,32.83
2017-08-30T13:15:06.402Z,32.79
2017-08-30T13:16:19.085Z,32.79
2017-08-30T13:17:31.669Z,32.71
2017-08-30T13:18:44.286Z,32.72
2017-08-30T13:19:56.923Z,32.66
2017-08-30T13:21:08.881Z,32.66
2017-08-30T13:22:21.413Z,32.63
2017-08-30T13:23:33.393Z,32.63
2017-08-30T13:24:45.401Z,32.46
2017-08-30T13:25:57.356Z,32.53
2017-08-30T13:27:08.690Z,32.42
2017-08-30T13:28:21.336Z,32.38
2017-08-30T13:29:33.582Z,32.39
2017-08-30T13:30:46.221Z,32.26
2017-08-30T13:31:58.817Z,32.24
2017-08-30T13:33:11.168Z,32.22
2017-08-30T13:34:23.378Z,32.17
2017-08-30T13:35:35.736Z,32.11
2017-08-30T13:36:48.332Z,32.12
2017-08-30T13:38:00.986Z,32.05
2017-08-30T13:39:13.351Z,32
2017-08-30T13:40:24.656Z,31.93
2017-08-30T13:41:36.974Z,32
2017-08-30T13:42:49.541Z,31.93
2017-08-30T13:44:01.888Z,32.05
2017-08-30T13:45:14.491Z,32.02
2017-08-30T13:46:26.829Z,32.04
2017-08-30T13:47:39.460Z,32.04
2017-08-30T13:48:52.045Z,32
2017-08-30T13:50:04.663Z,32.02
2017-08-30T13:51:16.947Z,32.04
2017-08-30T13:52:29.275Z,32.01
2017-08-30T13:53:41.238Z,32.04
2017-08-30T13:54:53.877Z,32.08
2017-08-30T13:56:06.219Z,32.12
2017-08-30T13:57:18.124Z,32.11
2017-08-30T13:58:30.711Z,32.19
2017-08-30T13:59:43.052Z,32.17
2017-08-30T14:00:55.019Z,32.29
2017-08-30T14:02:06.669Z,32.37
2017-08-30T14:03:18.912Z,32.46
2017-08-30T14:04:31.548Z,32.46
2017-08-30T14:05:43.830Z,32.42
2017-08-30T14:06:56.151Z,32.49
2017-08-30T14:08:07.587Z,32.54
2017-08-30T14:09:20.007Z,32.44
2017-08-30T14:10:32.451Z,32.48
2017-08-30T14:11:45.134Z,32.45
2017-08-30T14:12:57.858Z,32.34
2017-08-30T14:14:09.966Z,32.3
2017-08-30T14:15:22.419Z,32.26
2017-08-30T14:16:35.091Z,32.23
2017-08-30T14:17:47.661Z,32.2
2017-08-30T14:19:00.286Z,32.16
2017-08-30T14:20:12.957Z,32.15
2017-08-30T14:21:25.546Z,32.08
2017-08-30T14:22:37.797Z,31.95
2017-08-30T14:23:50.422Z,31.93
2017-08-30T14:25:03.318Z,32
2017-08-30T14:26:15.289Z,31.92
2017-08-30T14:27:27.267Z,31.89
2017-08-30T14:28:39.934Z,31.79
2017-08-30T14:29:52.553Z,31.74
2017-08-30T14:31:05.198Z,31.67
2017-08-30T14:32:17.798Z,31.69
2017-08-30T14:33:30.383Z,31.66
2017-08-30T14:34:42.711Z,31.63
2017-08-30T14:35:55.299Z,31.51
2017-08-30T14:37:07.317Z,31.57
2017-08-30T14:38:19.291Z,31.54
2017-08-30T14:39:31.555Z,31.54
2017-08-30T14:40:44.424Z,31.48
2017-08-30T14:41:56.421Z,31.42
2017-08-30T14:43:08.705Z,31.39
2017-08-30T14:44:21.023Z,31.39
2017-08-30T14:45:33.625Z,31.39
2017-08-30T14:46:46.192Z,31.3
2017-08-30T14:47:58.475Z,31.32
2017-08-30T14:49:11.120Z,31.32
2017-08-30T14:50:23.400Z,31.33
2017-08-30T14:51:35.369Z,31.23
2017-08-30T14:52:47.968Z,31.14
2017-08-30T14:54:00.306Z,31.14
2017-08-30T14:55:12.301Z,31.11
2017-08-30T14:56:24.587Z,31.11
2017-08-30T14:57:37.232Z,31.04
2017-08-30T14:58:49.853Z,31.07
2017-08-30T15:00:02.376Z,30.95
2017-08-30T15:01:14.687Z,30.93
2017-08-30T15:02:27.272Z,30.95
2017-08-30T15:03:39.535Z,30.88
2017-08-30T15:04:52.183Z,30.77
2017-08-30T15:06:04.702Z,30.77
2017-08-30T15:07:17.253Z,30.65
2017-08-30T15:08:28.876Z,30.62
2017-08-30T15:09:41.110Z,30.55
2017-08-30T15:10:53.744Z,30.51
2017-08-30T15:12:06.088Z,30.46
2017-08-30T15:13:18.047Z,30.38
2017-08-30T15:14:30.355Z,30.38
2017-08-30T15:15:42.866Z,30.36
2017-08-30T15:16:55.487Z,30.32
2017-08-30T15:18:07.772Z,30.35
2017-08-30T15:19:20.086Z,30.2
2017-08-30T15:20:32.360Z,30.17
2017-08-30T15:21:44.981Z,30.17
2017-08-30T15:22:57.598Z,30.01
2017-08-30T15:24:09.857Z,30.03
2017-08-30T15:25:22.488Z,30.01
2017-08-30T15:26:35.121Z,29.99
2017-08-30T15:28:02.609Z,29.87
2017-08-30T15:29:15.261Z,29.87
2017-08-30T15:30:26.612Z,29.74
2017-08-30T15:31:38.942Z,29.79
2017-08-30T15:32:51.180Z,29.74
2017-08-30T15:34:03.786Z,29.65
2017-08-30T15:35:16.134Z,29.64
2017-08-30T15:36:28.138Z,29.68